Pointe-Lebel, Canada
Current Conditions -  °F | °C
As of 9:00 PM on Monday 20 Oct 2014 (Local Time) from CYBC Reporting Station
Broken Clouds Broken Clouds  
Wind Chill: 27°   Ceiling: 25000
Heat Index: 36°   Visibility: 9mi
Dew Point: 27°   Wind: 13mph
Humidity: 70%   Direction: 260°W
Pressure: 29.82"   Gusts: 18mph
Location:  49.15°N, 68.2°W
Report Text: CYBC 210100Z AUTO 26011G16KT 9SM FEW070 BKN250 02/M03 A2982 RMK SLP099
Loading
Personal Weather Stations






























Interactive Weather Map New forecast layout! Learn more

10-Day Weather Forecast

Advertisements
Track Severe Weather on mobile